Welcome to Northern Hawkes Bay. New Zealand.
PWS Header
      nz Flag



Hit Counter


W3C Valid W3C Valid logo


    Wairoa

Select any of the Stations below to visit their websites.










Historic Data from Weather Underground
Select the location of interest below. Wairoa is the default. Please have patience, this Data is slow to load in.
Northern Hawkes Bay Historical Data
Daily Summary for May 18, 2017 Units:  Metric    English   Both
« Previous Day
Next Day »
Daily Weekly Monthly Yearly Custom
  High: Low: Average:
Temperature: 21.8 °C 9.4 °C 15.2 °C
Dew Point: 14.3 °C 9.2 °C 11.6 °C
Humidity: 99% 60% 80%
Wind Speed: 43.9km/h 0.0km/h 9.9km/h
Wind Gust: 90.7km/h - -
Wind- - South
Pressure: 1008.4 hPa 997.5 hPa -
Precipitation: 6.3 mm    
Historical Graphs
 
 
Tabular Data for May 18, 2017
Time Temperature Dew Point Pressure Wind Wind Speed Wind Gust Humidity Rainfall Rate (Hourly) solar
00:07 14.0 °C 11.7 °C 1008.4 hPa Calm   1.1 km/h 86% 0.0 mm 0 W/m2
00:12 14.0 °C 11.9 °C 1008.4 hPa Calm     87% 0.0 mm 0 W/m2
00:17 14.0 °C 11.9 °C 1008.4 hPa NW 3.5 km/h 5.0 km/h 87% 0.0 mm 0 W/m2
00:22 13.8 °C 11.8 °C 1008.0 hPa NNW 1.1 km/h 5.0 km/h 88% 0.0 mm 0 W/m2
00:27 13.6 °C 11.7 °C 1008.4 hPa NW 1.1 km/h 5.0 km/h 88% 0.0 mm 0 W/m2
00:32 13.5 °C 11.6 °C 1008.4 hPa Calm   2.6 km/h 88% 0.0 mm 0 W/m2
00:37 13.3 °C 11.3 °C 1008.0 hPa Calm   2.6 km/h 88% 0.0 mm 0 W/m2
00:42 13.0 °C 11.1 °C 1008.0 hPa Calm     88% 0.0 mm 0 W/m2
00:47 12.9 °C 11.1 °C 1008.0 hPa Calm     89% 0.0 mm 0 W/m2
00:52 12.9 °C 11.3 °C 1008.0 hPa Calm     90% 0.0 mm 0 W/m2
00:57 12.9 °C 11.3 °C 1008.0 hPa East 1.1 km/h 3.5 km/h 90% 0.0 mm 0 W/m2
01:02 13.1 °C 11.5 °C 1008.0 hPa East 2.6 km/h 5.0 km/h 90% 0.0 mm 0 W/m2
01:07 13.6 °C 12.0 °C 1008.0 hPa East 3.5 km/h 6.1 km/h 90% 0.0 mm 0 W/m2
01:12 14.4 °C 12.4 °C 1007.7 hPa East 2.6 km/h 8.7 km/h 88% 0.0 mm 0 W/m2
01:17 14.8 °C 12.5 °C 1008.0 hPa Calm   8.7 km/h 86% 0.0 mm 0 W/m2
01:22 14.8 °C 12.3 °C 1007.7 hPa Calm   5.0 km/h 85% 0.0 mm 0 W/m2
01:27 14.6 °C 11.9 °C 1007.7 hPa Calm   5.0 km/h 84% 0.0 mm 0 W/m2
01:32 14.3 °C 11.6 °C 1007.3 hPa ENE 1.1 km/h 3.5 km/h 84% 0.0 mm 0 W/m2
01:37 14.0 °C 11.3 °C 1007.7 hPa North 2.6 km/h 7.2 km/h 84% 0.0 mm 0 W/m2
01:42 13.6 °C 11.3 °C 1007.3 hPa North 2.6 km/h 7.2 km/h 86% 0.0 mm 0 W/m2
01:47 13.5 °C 11.4 °C 1007.3 hPa NNW 1.1 km/h 5.0 km/h 87% 0.0 mm 0 W/m2
01:52 13.3 °C 11.2 °C 1007.3 hPa Calm   5.0 km/h 87% 0.0 mm 0 W/m2
01:57 13.8 °C 11.8 °C 1007.3 hPa ESE 5.0 km/h 12.2 km/h 88% 0.0 mm 0 W/m2
02:02 14.9 °C 12.6 °C 1007.3 hPa Calm   12.2 km/h 86% 0.0 mm 0 W/m2
02:07 15.3 °C 12.4 °C 1007.3 hPa East 1.1 km/h 8.7 km/h 83% 0.0 mm 0 W/m2
02:12 15.4 °C 12.3 °C 1007.0 hPa East 9.7 km/h 14.8 km/h 82% 0.0 mm 0 W/m2
02:17 15.9 °C 12.3 °C 1007.3 hPa East 5.0 km/h 14.8 km/h 79% 0.0 mm 0 W/m2
02:22 16.0 °C 12.0 °C 1007.0 hPa ENE 2.6 km/h 14.8 km/h 77% 0.0 mm 0 W/m2
02:27 15.5 °C 11.9 °C 1007.0 hPa NE 3.5 km/h 11.1 km/h 79% 0.0 mm 0 W/m2
02:32 15.2 °C 11.6 °C 1006.7 hPa NNE 1.1 km/h 11.1 km/h 79% 0.0 mm 0 W/m2
02:37 15.0 °C 11.8 °C 1006.7 hPa North 3.5 km/h 6.1 km/h 81% 0.0 mm 0 W/m2
02:42 14.5 °C 11.4 °C 1006.7 hPa Calm   6.1 km/h 82% 0.0 mm 0 W/m2
02:47 14.4 °C 11.7 °C 1006.7 hPa NNW 2.6 km/h 7.2 km/h 84% 0.0 mm 0 W/m2
02:52 14.7 °C 12.1 °C 1006.7 hPa Calm   7.2 km/h 84% 0.0 mm 0 W/m2
02:57 14.5 °C 11.7 °C 1006.7 hPa Calm   5.0 km/h 83% 0.0 mm 0 W/m2
03:02 14.3 °C 11.6 °C 1006.3 hPa North 2.6 km/h 3.5 km/h 84% 0.0 mm 0 W/m2
03:07 13.8 °C 11.3 °C 1006.3 hPa NNW 2.6 km/h 6.1 km/h 85% 0.0 mm 0 W/m2
03:12 13.6 °C 11.3 °C 1006.3 hPa NNW 2.6 km/h 6.1 km/h 86% 0.0 mm 0 W/m2
03:17 13.6 °C 11.5 °C 1006.0 hPa North 3.5 km/h 7.2 km/h 87% 0.0 mm 0 W/m2
03:22 13.5 °C 11.4 °C 1006.0 hPa North 2.6 km/h 7.2 km/h 87% 0.0 mm 0 W/m2
03:27 13.6 °C 11.7 °C 1005.6 hPa NNW 1.1 km/h 7.2 km/h 88% 0.0 mm 0 W/m2
03:32 13.7 °C 11.8 °C 1005.6 hPa NNW 1.1 km/h 5.0 km/h 88% 0.0 mm 0 W/m2
03:37 13.8 °C 11.7 °C 1005.6 hPa North 3.5 km/h 5.0 km/h 87% 0.0 mm 0 W/m2
03:42 13.8 °C 11.7 °C 1005.6 hPa NNW 1.1 km/h 5.0 km/h 87% 0.0 mm 0 W/m2
03:47 13.9 °C 11.8 °C 1005.3 hPa NNW 6.1 km/h 11.1 km/h 87% 0.0 mm 0 W/m2
03:52 14.5 °C 12.0 °C 1005.6 hPa NNE 1.1 km/h 11.1 km/h 85% 0.0 mm 0 W/m2
03:57 14.4 °C 11.7 °C 1005.6 hPa NNE 2.6 km/h 11.1 km/h 84% 0.0 mm 0 W/m2
04:02 14.1 °C 11.4 °C 1005.6 hPa NW 3.5 km/h 6.1 km/h 84% 0.0 mm 0 W/m2
04:07 14.1 °C 11.6 °C 1005.3 hPa NNW 2.6 km/h 6.1 km/h 85% 0.0 mm 0 W/m2
04:12 13.9 °C 11.6 °C 1005.3 hPa NNW 3.5 km/h 6.1 km/h 86% 0.0 mm 0 W/m2
04:17 13.7 °C 11.4 °C 1005.3 hPa NNW 2.6 km/h 6.1 km/h 86% 0.0 mm 0 W/m2
04:22 13.9 °C 11.8 °C 1005.3 hPa North 2.6 km/h 8.7 km/h 87% 0.0 mm 0 W/m2
04:27 14.1 °C 11.8 °C 1005.0 hPa NNE 2.6 km/h 8.7 km/h 86% 0.0 mm 0 W/m2
04:32 14.1 °C 11.6 °C 1005.0 hPa NNE 2.6 km/h 8.7 km/h 85% 0.0 mm 0 W/m2
04:37 14.5 °C 12.0 °C 1004.6 hPa NNE 5.0 km/h 8.7 km/h 85% 0.0 mm 0 W/m2
04:42 14.9 °C 12.2 °C 1004.6 hPa NNE 5.0 km/h 8.7 km/h 84% 0.0 mm 0 W/m2
04:47 15.2 °C 11.8 °C 1004.6 hPa North 5.0 km/h 9.7 km/h 80% 0.0 mm 0 W/m2
04:52 15.5 °C 11.9 °C 1004.6 hPa North 6.1 km/h 12.2 km/h 79% 0.3 mm 0 W/m2
04:57 15.9 °C 11.9 °C 1004.3 hPa NNE 8.7 km/h 13.4 km/h 77% 0.3 mm 0 W/m2
05:02 16.4 °C 11.8 °C 1004.6 hPa NNE 7.2 km/h 13.4 km/h 74% 0.3 mm 0 W/m2
05:07 16.5 °C 11.8 °C 1004.3 hPa North 7.2 km/h 12.2 km/h 74% 0.3 mm 0 W/m2
05:12 16.9 °C 12.1 °C 1004.3 hPa North 7.2 km/h 19.5 km/h 73% 0.3 mm 0 W/m2
05:17 17.2 °C 11.9 °C 1004.3 hPa North 9.7 km/h 19.5 km/h 71% 0.3 mm 0 W/m2
05:22 17.4 °C 12.1 °C 1004.3 hPa North 11.1 km/h 18.3 km/h 71% 0.3 mm 0 W/m2
05:27 17.6 °C 12.1 °C 1004.3 hPa North 5.0 km/h 20.9 km/h 70% 0.3 mm 0 W/m2
05:32 17.3 °C 12.0 °C 1003.9 hPa North 6.1 km/h 20.9 km/h 71% 0.3 mm 0 W/m2
05:37 17.3 °C 12.0 °C 1003.9 hPa North 12.2 km/h 19.5 km/h 71% 0.3 mm 0 W/m2
05:42 17.5 °C 12.2 °C 1003.9 hPa North 9.7 km/h 19.5 km/h 71% 0.3 mm 0 W/m2
05:47 17.7 °C 12.2 °C 1003.6 hPa North 17.2 km/h 20.9 km/h 70% 0.3 mm 0 W/m2
05:52 17.8 °C 12.3 °C 1003.6 hPa North 8.7 km/h 20.9 km/h 70% 0.0 mm 0 W/m2
05:57 17.8 °C 12.3 °C 1003.6 hPa North 11.1 km/h 24.5 km/h 70% 0.0 mm 0 W/m2
06:02 17.8 °C 12.1 °C 1003.6 hPa NNE 13.4 km/h 24.5 km/h 69% 0.0 mm 0 W/m2
06:07 17.9 °C 12.2 °C 1003.3 hPa NNE 7.2 km/h 23.3 km/h 69% 0.0 mm 0 W/m2
06:12 17.8 °C 12.1 °C 1003.3 hPa North 6.1 km/h 20.9 km/h 69% 0.0 mm 0 W/m2
06:17 17.7 °C 11.9 °C 1002.9 hPa North 7.2 km/h 13.4 km/h 69% 0.0 mm 0 W/m2
06:22 17.7 °C 11.9 °C 1003.3 hPa North 6.1 km/h 18.3 km/h 69% 0.0 mm 0 W/m2
06:27 17.7 °C 11.9 °C 1002.9 hPa North 9.7 km/h 18.3 km/h 69% 0.0 mm 0 W/m2
06:32 17.7 °C 11.9 °C 1002.9 hPa NNE 6.1 km/h 14.8 km/h 69% 0.0 mm 0 W/m2
06:37 17.6 °C 12.1 °C 1002.9 hPa NNE 7.2 km/h 14.8 km/h 70% 0.0 mm 0 W/m2
06:42 17.6 °C 12.1 °C 1002.9 hPa NNE 8.7 km/h 15.8 km/h 70% 0.0 mm 0 W/m2
06:47 17.6 °C 12.1 °C 1002.9 hPa NNE 7.2 km/h 15.8 km/h 70% 0.0 mm 0 W/m2
06:52 17.5 °C 12.0 °C 1002.9 hPa NNE 3.5 km/h 13.4 km/h 70% 0.0 mm 0 W/m2
06:57 17.5 °C 12.2 °C 1002.6 hPa NNE 6.1 km/h 13.4 km/h 71% 0.0 mm 0 W/m2
07:02 17.4 °C 12.1 °C 1002.9 hPa NNE 3.5 km/h 12.2 km/h 71% 0.0 mm 0 W/m2
07:07 17.3 °C 12.0 °C 1002.9 hPa NE 1.1 km/h 13.4 km/h 71% 0.0 mm 0 W/m2
07:12 17.2 °C 11.9 °C 1002.9 hPa NE 3.5 km/h 13.4 km/h 71% 0.0 mm 1 W/m2
07:17 17.2 °C 12.1 °C 1002.9 hPa NNE 6.1 km/h 13.4 km/h 72% 0.0 mm 4 W/m2
07:22 17.3 °C 12.2 °C 1002.6 hPa NE 6.1 km/h 13.4 km/h 72% 0.0 mm 6 W/m2
07:27 17.5 °C 12.2 °C 1002.6 hPa NE 7.2 km/h 14.8 km/h 71% 0.0 mm 24 W/m2
07:32 17.8 °C 12.5 °C 1002.6 hPa North 8.7 km/h 14.8 km/h 71% 0.0 mm 9 W/m2
07:37 17.7 °C 12.4 °C 1002.3 hPa NNE 7.2 km/h 14.8 km/h 71% 0.0 mm 13 W/m2
07:42 17.6 °C 12.3 °C 1002.3 hPa NNE 2.6 km/h 14.8 km/h 71% 0.0 mm 18 W/m2
07:47 17.7 °C 12.6 °C 1002.3 hPa NNE 2.6 km/h 14.8 km/h 72% 0.0 mm 21 W/m2
07:52 17.6 °C 12.5 °C 1002.3 hPa NNE 7.2 km/h 14.8 km/h 72% 0.0 mm 24 W/m2
07:57 17.6 °C 12.5 °C 1002.3 hPa NNE 8.7 km/h 13.4 km/h 72% 0.0 mm 25 W/m2
08:03 17.6 °C 12.7 °C 1001.9 hPa NNE 5.0 km/h 14.8 km/h 73% 0.0 mm 26 W/m2
08:08 17.5 °C 12.6 °C 1001.9 hPa North 7.2 km/h 21.9 km/h 73% 0.0 mm 27 W/m2
08:13 17.5 °C 12.8 °C 1001.9 hPa NNE 15.8 km/h 21.9 km/h 74% 0.0 mm 32 W/m2
08:18 17.7 °C 13.0 °C 1002.3 hPa NNE 9.7 km/h 28.0 km/h 74% 0.0 mm 39 W/m2
08:23 17.7 °C 13.0 °C 1001.9 hPa North 11.1 km/h 28.0 km/h 74% 0.0 mm 45 W/m2
08:28 17.7 °C 13.0 °C 1001.9 hPa North 7.2 km/h 19.5 km/h 74% 0.0 mm 49 W/m2
08:33 17.7 °C 13.0 °C 1001.9 hPa North 9.7 km/h 19.5 km/h 74% 0.0 mm 52 W/m2
08:38 17.6 °C 12.9 °C 1001.6 hPa NNE 14.8 km/h 29.4 km/h 74% 0.0 mm 54 W/m2
08:43 17.7 °C 13.0 °C 1001.6 hPa NNE 12.2 km/h 29.4 km/h 74% 0.0 mm 57 W/m2
08:48 17.7 °C 13.2 °C 1001.2 hPa North 9.7 km/h 29.4 km/h 75% 0.0 mm 58 W/m2
08:53 17.8 °C 13.1 °C 1001.2 hPa North 11.1 km/h 21.9 km/h 74% 0.0 mm 66 W/m2
08:58 17.9 °C 13.2 °C 1001.6 hPa North 7.2 km/h 33.1 km/h 74% 0.0 mm 72 W/m2
09:03 18.0 °C 13.5 °C 1001.2 hPa NNE 7.2 km/h 33.1 km/h 75% 0.0 mm 73 W/m2
09:08 18.1 °C 13.4 °C 1001.2 hPa NNE 11.1 km/h 18.3 km/h 74% 0.0 mm 79 W/m2
09:13 18.3 °C 13.6 °C 1001.2 hPa NNE 7.2 km/h 21.9 km/h 74% 0.0 mm 106 W/m2
09:18 18.4 °C 13.5 °C 1000.9 hPa NNE 12.2 km/h 21.9 km/h 73% 0.0 mm 86 W/m2
09:23 18.4 °C 13.5 °C 1001.2 hPa North 7.2 km/h 20.9 km/h 73% 0.0 mm 88 W/m2
09:28 18.5 °C 13.6 °C 1000.9 hPa North 15.8 km/h 21.9 km/h 73% 0.0 mm 91 W/m2
09:33 18.6 °C 13.7 °C 1000.6 hPa North 19.5 km/h 24.5 km/h 73% 0.0 mm 94 W/m2
09:38 18.7 °C 13.6 °C 1000.6 hPa North 14.8 km/h 27.0 km/h 72% 0.0 mm 99 W/m2
09:43 18.9 °C 13.8 °C 1000.2 hPa North 14.8 km/h 30.6 km/h 72% 0.0 mm 105 W/m2
09:48 19.0 °C 13.4 °C 1000.2 hPa North 17.2 km/h 30.6 km/h 70% 0.0 mm 120 W/m2
09:53 19.4 °C 13.6 °C 1000.2 hPa North 13.4 km/h 28.0 km/h 69% 0.0 mm 133 W/m2
09:58 20.1 °C 13.8 °C 1000.2 hPa North 12.2 km/h 25.6 km/h 67% 0.0 mm 134 W/m2
10:03 20.3 °C 13.8 °C 1000.2 hPa NNE 14.8 km/h 28.0 km/h 66% 0.0 mm 154 W/m2
10:08 20.7 °C 13.9 °C 999.9 hPa NNE 13.4 km/h 28.0 km/h 65% 0.0 mm 175 W/m2
10:13 21.0 °C 13.9 °C 1000.2 hPa NNE 7.2 km/h 21.9 km/h 64% 0.0 mm 185 W/m2
10:18 21.2 °C 13.7 °C 999.9 hPa NNE 12.2 km/h 24.5 km/h 62% 0.0 mm 183 W/m2
10:23 21.0 °C 13.7 °C 999.5 hPa NNE 9.7 km/h 24.5 km/h 63% 0.0 mm 176 W/m2
10:28 20.5 °C 13.7 °C 999.5 hPa NNE 11.1 km/h 27.0 km/h 65% 0.0 mm 178 W/m2
10:34 20.3 °C 13.5 °C 999.2 hPa North 24.5 km/h 29.4 km/h 65% 0.0 mm 177 W/m2
10:40 20.3 °C 13.5 °C 999.2 hPa North 12.2 km/h 34.3 km/h 65% 0.0 mm 176 W/m2
10:45 20.3 °C 13.8 °C 999.2 hPa North 11.1 km/h 34.3 km/h 66% 0.0 mm 171 W/m2
10:51 20.3 °C 13.8 °C 999.2 hPa North 13.4 km/h 24.5 km/h 66% 0.0 mm 173 W/m2
10:56 20.2 °C 13.7 °C 999.2 hPa North 15.8 km/h 28.0 km/h 66% 0.0 mm 170 W/m2
11:00 20.2 °C 13.7 °C 998.9 hPa North 15.8 km/h 28.0 km/h 66% 0.0 mm 162 W/m2
11:05 20.2 °C 13.9 °C 998.9 hPa NNE 14.8 km/h 21.9 km/h 67% 0.0 mm 158 W/m2
11:06 20.2 °C 13.7 °C 998.9 hPa NNE 14.8 km/h 21.9 km/h 66% 0.0 mm 156 W/m2
11:11 20.1 °C 13.8 °C 998.5 hPa NNE 14.8 km/h 23.3 km/h 67% 0.0 mm 147 W/m2
11:16 20.1 °C 13.8 °C 998.9 hPa NNE 19.5 km/h 28.0 km/h 67% 0.0 mm 150 W/m2
11:21 20.0 °C 13.7 °C 998.5 hPa North 8.7 km/h 28.0 km/h 67% 0.0 mm 157 W/m2
11:26 20.1 °C 14.0 °C 998.5 hPa North 11.1 km/h 24.5 km/h 68% 0.0 mm 170 W/m2
11:31 20.1 °C 13.8 °C 998.2 hPa North 8.7 km/h 30.6 km/h 67% 0.0 mm 168 W/m2
11:36 20.2 °C 13.9 °C 998.2 hPa North 12.2 km/h 30.6 km/h 67% 0.0 mm 177 W/m2
11:41 20.3 °C 14.0 °C 998.2 hPa NNW 13.4 km/h 25.6 km/h 67% 0.0 mm 187 W/m2
11:46 20.4 °C 14.1 °C 997.9 hPa NNW 14.8 km/h 27.0 km/h 67% 0.0 mm 205 W/m2
11:51 20.6 °C 14.3 °C 997.9 hPa North 15.8 km/h 28.0 km/h 67% 0.0 mm 205 W/m2
11:56 20.9 °C 14.3 °C 997.5 hPa North 12.2 km/h 28.0 km/h 66% 0.0 mm 244 W/m2
12:01 20.9 °C 14.3 °C 997.9 hPa North 18.3 km/h 27.0 km/h 66% 0.0 mm 172 W/m2
12:06 20.8 °C 14.0 °C 997.5 hPa North 15.8 km/h 29.4 km/h 65% 0.0 mm 148 W/m2
12:11 20.7 °C 14.1 °C 997.5 hPa NNW 12.2 km/h 29.4 km/h 66% 0.0 mm 175 W/m2
12:16 20.7 °C 14.1 °C 997.5 hPa NNW 15.8 km/h 29.4 km/h 66% 0.0 mm 139 W/m2
12:21 20.8 °C 14.2 °C 997.5 hPa North 8.7 km/h 29.4 km/h 66% 0.0 mm 140 W/m2
12:26 20.9 °C 14.3 °C 997.5 hPa North 15.8 km/h 27.0 km/h 66% 0.0 mm 153 W/m2
12:31 20.9 °C 14.3 °C 997.5 hPa North 8.7 km/h 20.9 km/h 66% 0.0 mm 170 W/m2
12:36 21.1 °C 13.8 °C 997.5 hPa North 11.1 km/h 23.3 km/h 63% 0.0 mm 184 W/m2
12:41 21.4 °C 13.8 °C 997.5 hPa NNW 17.2 km/h 34.3 km/h 62% 0.0 mm 208 W/m2
12:46 21.5 °C 14.2 °C 997.5 hPa NNW 13.4 km/h 34.3 km/h 63% 0.0 mm 161 W/m2
12:51 21.4 °C 14.1 °C 997.5 hPa NNW 19.5 km/h 27.0 km/h 63% 0.0 mm 178 W/m2
12:56 21.6 °C 14.3 °C 997.5 hPa NNW 9.7 km/h 27.0 km/h 63% 0.0 mm 190 W/m2
13:01 21.8 °C 14.2 °C 997.5 hPa NW 15.8 km/h 30.6 km/h 62% 0.0 mm 217 W/m2
13:06 21.8 °C 13.7 °C 997.9 hPa NW 12.2 km/h 31.7 km/h 60% 0.0 mm 281 W/m2
13:11 19.9 °C 12.9 °C 1000.2 hPa West 34.3 km/h 90.7 km/h 64% 4.6 mm 79 W/m2
13:16 14.9 °C 12.4 °C 1000.6 hPa WSW 29.4 km/h 90.7 km/h 85% 5.6 mm 128 W/m2
13:19 14.6 °C 12.4 °C 1000.6 hPa WSW 36.7 km/h 90.7 km/h 87% 6.1 mm 139 W/m2
13:25 14.9 °C 13.1 °C 1001.2 hPa WSW 31.7 km/h 63.7 km/h 89% 6.1 mm 214 W/m2
13:30 15.3 °C 13.2 °C 1001.2 hPa SW 43.9 km/h 63.7 km/h 87% 6.1 mm 226 W/m2
13:35 15.1 °C 12.6 °C 1001.2 hPa WSW 29.4 km/h 60.2 km/h 85% 6.1 mm 215 W/m2
13:40 15.5 °C 12.8 °C 1001.2 hPa WSW 34.3 km/h 55.0 km/h 84% 6.1 mm 220 W/m2
13:45 15.4 °C 12.3 °C 1001.6 hPa WSW 24.5 km/h 62.3 km/h 82% 6.1 mm 204 W/m2
13:50 15.5 °C 12.3 °C 1001.6 hPa West 25.6 km/h 62.3 km/h 81% 6.1 mm 203 W/m2
13:55 15.1 °C 11.7 °C 1001.9 hPa West 36.7 km/h 62.3 km/h 80% 6.1 mm 204 W/m2
14:00 15.0 °C 11.8 °C 1001.9 hPa SW 31.7 km/h 48.9 km/h 81% 6.1 mm 182 W/m2
14:05 15.0 °C 11.6 °C 1001.9 hPa SW 35.6 km/h 58.7 km/h 80% 6.1 mm 206 W/m2
14:10 15.0 °C 11.6 °C 1002.3 hPa WSW 29.4 km/h 58.7 km/h 80% 1.5 mm 173 W/m2
14:15 14.8 °C 11.4 °C 1002.3 hPa WSW 29.4 km/h 52.6 km/h 80% 0.3 mm 192 W/m2
14:20 15.0 °C 11.4 °C 1002.3 hPa WSW 30.6 km/h 52.6 km/h 79% 0.0 mm 197 W/m2
14:25 14.9 °C 11.3 °C 1002.3 hPa SW 35.6 km/h 50.0 km/h 79% 0.0 mm 138 W/m2
14:30 14.8 °C 11.4 °C 1002.6 hPa SW 23.3 km/h 46.5 km/h 80% 0.0 mm 140 W/m2
14:35 14.8 °C 11.4 °C 1002.6 hPa WSW 36.7 km/h 47.9 km/h 80% 0.0 mm 135 W/m2
14:40 14.9 °C 11.3 °C 1002.6 hPa WSW 28.0 km/h 47.9 km/h 79% 0.0 mm 273 W/m2
14:45 15.1 °C 11.1 °C 1002.6 hPa SW 31.7 km/h 47.9 km/h 77% 0.0 mm 309 W/m2
14:50 15.2 °C 11.0 °C 1002.9 hPa SW 27.0 km/h 54.1 km/h 76% 0.0 mm 182 W/m2
14:55 15.0 °C 11.0 °C 1002.9 hPa WSW 31.7 km/h 54.1 km/h 77% 0.0 mm 171 W/m2
14:59 15.0 °C 11.0 °C 1002.9 hPa WSW 28.0 km/h 48.9 km/h 77% 0.0 mm 261 W/m2
15:04 15.1 °C 10.9 °C 1002.9 hPa SW 28.0 km/h 50.0 km/h 76% 0.0 mm 81 W/m2
15:09 14.7 °C 10.9 °C 1002.9 hPa SW 20.9 km/h 50.0 km/h 78% 0.0 mm 100 W/m2
15:15 14.6 °C 11.0 °C 1002.9 hPa SW 23.3 km/h 35.6 km/h 79% 0.0 mm 254 W/m2
15:20 14.7 °C 10.7 °C 1002.9 hPa SW 18.3 km/h 41.7 km/h 77% 0.0 mm 154 W/m2
15:25 14.9 °C 10.9 °C 1002.9 hPa SW 19.5 km/h 41.7 km/h 77% 0.0 mm 179 W/m2
15:30 15.0 °C 10.8 °C 1002.9 hPa WSW 23.3 km/h 39.3 km/h 76% 0.0 mm 133 W/m2
15:35 15.1 °C 10.9 °C 1003.3 hPa WSW 17.2 km/h 39.3 km/h 76% 0.0 mm 175 W/m2
15:40 15.2 °C 11.0 °C 1003.3 hPa WSW 24.5 km/h 37.8 km/h 76% 0.0 mm 159 W/m2
15:45 15.3 °C 10.9 °C 1003.3 hPa WSW 28.0 km/h 39.3 km/h 75% 0.0 mm 131 W/m2
15:50 15.0 °C 10.6 °C 1003.6 hPa WSW 15.8 km/h 41.7 km/h 75% 0.0 mm 68 W/m2
15:55 14.5 °C 10.7 °C 1003.6 hPa SW 17.2 km/h 41.7 km/h 78% 0.0 mm 43 W/m2
16:00 14.2 °C 10.6 °C 1003.6 hPa SW 21.9 km/h 33.1 km/h 79% 0.0 mm 41 W/m2
16:05 14.1 °C 10.3 °C 1003.9 hPa WSW 20.9 km/h 39.3 km/h 78% 0.0 mm 43 W/m2
16:10 14.1 °C 10.3 °C 1003.9 hPa SW 25.6 km/h 41.7 km/h 78% 0.0 mm 39 W/m2
16:15 14.1 °C 10.5 °C 1003.9 hPa SW 21.9 km/h 41.7 km/h 79% 0.0 mm 38 W/m2
16:20 14.1 °C 10.5 °C 1003.9 hPa SW 19.5 km/h 41.7 km/h 79% 0.0 mm 31 W/m2
16:25 14.1 °C 10.5 °C 1003.9 hPa SW 11.1 km/h 31.7 km/h 79% 0.0 mm 25 W/m2
16:30 14.1 °C 10.7 °C 1003.9 hPa SW 18.3 km/h 29.4 km/h 80% 0.0 mm 21 W/m2
16:35 14.1 °C 10.5 °C 1004.3 hPa SW 18.3 km/h 27.0 km/h 79% 0.0 mm 20 W/m2
16:40 14.1 °C 10.5 °C 1004.3 hPa WSW 15.8 km/h 27.0 km/h 79% 0.0 mm 18 W/m2
16:45 14.1 °C 10.3 °C 1004.3 hPa WSW 8.7 km/h 24.5 km/h 78% 0.0 mm 16 W/m2
16:50 14.2 °C 10.6 °C 1004.3 hPa WSW 17.2 km/h 25.6 km/h 79% 0.0 mm 13 W/m2
16:55 14.1 °C 10.5 °C 1004.6 hPa WSW 14.8 km/h 27.0 km/h 79% 0.0 mm 8 W/m2
17:00 14.1 °C 10.3 °C 1004.3 hPa SW 14.8 km/h 27.0 km/h 78% 0.0 mm 5 W/m2
17:05 14.1 °C 10.3 °C 1004.3 hPa WSW 18.3 km/h 28.0 km/h 78% 0.0 mm 2 W/m2
17:10 14.1 °C 10.3 °C 1004.6 hPa SW 11.1 km/h 28.0 km/h 78% 0.0 mm 0 W/m2
17:15 14.1 °C 10.1 °C 1004.6 hPa SW 8.7 km/h 28.0 km/h 77% 0.0 mm 0 W/m2
17:20 14.0 °C 10.1 °C 1004.6 hPa SW 8.7 km/h 25.6 km/h 77% 0.0 mm 0 W/m2
17:25 13.9 °C 10.3 °C 1005.0 hPa WSW 12.2 km/h 25.6 km/h 79% 0.0 mm 0 W/m2
17:30 13.9 °C 10.3 °C 1005.0 hPa West 9.7 km/h 24.5 km/h 79% 0.0 mm 0 W/m2
17:35 13.9 °C 10.5 °C 1005.0 hPa WSW 13.4 km/h 24.5 km/h 80% 0.0 mm 0 W/m2
17:40 13.9 °C 10.5 °C 1005.0 hPa WSW 8.7 km/h 20.9 km/h 80% 0.0 mm 0 W/m2
17:45 13.9 °C 10.7 °C 1005.0 hPa WSW 7.2 km/h 20.9 km/h 81% 0.0 mm 0 W/m2
17:50 13.9 °C 10.7 °C 1005.3 hPa SW 12.2 km/h 20.9 km/h 81% 0.0 mm 0 W/m2
18:00 13.9 °C 10.5 °C 1005.3 hPa WSW 14.8 km/h 27.0 km/h 80% 0.0 mm 0 W/m2
18:05 13.9 °C 10.5 °C 1005.3 hPa WSW 15.8 km/h 27.0 km/h 80% 0.0 mm 0 W/m2
18:10 13.9 °C 10.5 °C 1005.3 hPa SW 5.0 km/h 27.0 km/h 80% 0.0 mm 0 W/m2
18:15 13.9 °C 10.7 °C 1005.3 hPa SW 11.1 km/h 27.0 km/h 81% 0.0 mm 0 W/m2
18:20 13.8 °C 10.6 °C 1005.6 hPa WSW 7.2 km/h 20.9 km/h 81% 0.0 mm 0 W/m2
18:25 13.7 °C 10.5 °C 1005.6 hPa WSW 13.4 km/h 23.3 km/h 81% 0.0 mm 0 W/m2
18:30 13.7 °C 10.5 °C 1005.6 hPa WSW 6.1 km/h 23.3 km/h 81% 0.0 mm 0 W/m2
18:35 13.7 °C 10.5 °C 1005.6 hPa SW 6.1 km/h 18.3 km/h 81% 0.0 mm 0 W/m2
18:40 13.6 °C 10.6 °C 1005.6 hPa WSW 7.2 km/h 19.5 km/h 82% 0.0 mm 0 W/m2
18:42 13.6 °C 10.6 °C 1006.0 hPa SW 11.1 km/h 19.5 km/h 82% 0.0 mm 0 W/m2
18:47 13.6 °C 10.6 °C 1005.6 hPa SW 14.8 km/h 20.9 km/h 82% 0.0 mm 0 W/m2
18:52 13.6 °C 10.6 °C 1005.6 hPa SW 7.2 km/h 20.9 km/h 82% 0.0 mm 0 W/m2
18:57 13.5 °C 10.7 °C 1006.0 hPa WSW 8.7 km/h 15.8 km/h 83% 0.0 mm 0 W/m2
19:02 13.6 °C 10.9 °C 1006.0 hPa WSW 7.2 km/h 19.5 km/h 84% 0.0 mm 0 W/m2
19:08 13.5 °C 10.8 °C 1006.0 hPa WSW 7.2 km/h 19.5 km/h 84% 0.0 mm 0 W/m2
19:13 13.5 °C 10.8 °C 1006.0 hPa WSW 8.7 km/h 13.4 km/h 84% 0.0 mm 0 W/m2
19:18 13.6 °C 10.9 °C 1006.3 hPa West 6.1 km/h 13.4 km/h 84% 0.0 mm 0 W/m2
19:23 13.6 °C 10.9 °C 1006.0 hPa WSW 8.7 km/h 13.4 km/h 84% 0.0 mm 0 W/m2
19:28 13.6 °C 10.9 °C 1006.0 hPa WSW 6.1 km/h 12.2 km/h 84% 0.0 mm 0 W/m2
19:33 13.5 °C 10.8 °C 1006.0 hPa WSW 5.0 km/h 12.2 km/h 84% 0.0 mm 0 W/m2
19:38 13.4 °C 10.8 °C 1006.3 hPa WSW 3.5 km/h 9.7 km/h 84% 0.0 mm 0 W/m2
19:43 13.4 °C 10.8 °C 1006.3 hPa West 2.6 km/h 8.7 km/h 84% 0.0 mm 0 W/m2
19:48 13.3 °C 10.8 °C 1006.3 hPa West 3.5 km/h 7.2 km/h 85% 0.0 mm 0 W/m2
19:53 13.1 °C 10.7 °C 1006.7 hPa Calm   7.2 km/h 85% 0.0 mm 0 W/m2
19:58 13.0 °C 10.4 °C 1006.7 hPa Calm   5.0 km/h 84% 0.0 mm 0 W/m2
20:03 12.7 °C 10.1 °C 1006.3 hPa North 1.1 km/h 2.6 km/h 84% 0.0 mm 0 W/m2
20:08 12.4 °C 9.8 °C 1006.7 hPa Calm   3.5 km/h 84% 0.0 mm 0 W/m2
20:13 12.2 °C 9.8 °C 1006.7 hPa NNW 2.6 km/h 5.0 km/h 85% 0.0 mm 0 W/m2
20:18 12.0 °C 9.7 °C 1006.3 hPa NNW 2.6 km/h 5.0 km/h 86% 0.0 mm 0 W/m2
20:23 11.9 °C 10.0 °C 1006.3 hPa NNW 2.6 km/h 3.5 km/h 88% 0.0 mm 0 W/m2
20:28 11.7 °C 9.8 °C 1006.7 hPa NW 2.6 km/h 3.5 km/h 88% 0.0 mm 0 W/m2
20:33 11.5 °C 9.6 °C 1006.7 hPa WNW 3.5 km/h 6.1 km/h 88% 0.0 mm 0 W/m2
20:38 11.5 °C 9.8 °C 1006.7 hPa NW 2.6 km/h 6.1 km/h 89% 0.0 mm 0 W/m2
20:43 11.4 °C 9.8 °C 1006.7 hPa NW 3.5 km/h 5.0 km/h 90% 0.0 mm 0 W/m2
20:48 11.3 °C 9.9 °C 1006.7 hPa NW 3.5 km/h 7.2 km/h 91% 0.0 mm 0 W/m2
20:53 11.2 °C 9.9 °C 1007.0 hPa NW 2.6 km/h 7.2 km/h 92% 0.0 mm 0 W/m2
20:58 10.9 °C 9.8 °C 1006.7 hPa NW 2.6 km/h 6.1 km/h 93% 0.0 mm 0 W/m2
21:03 10.8 °C 9.7 °C 1006.7 hPa NNW 2.6 km/h 5.0 km/h 93% 0.0 mm 0 W/m2
21:08 10.7 °C 9.6 °C 1006.7 hPa Calm   5.0 km/h 93% 0.0 mm 0 W/m2
21:13 10.6 °C 9.5 °C 1007.0 hPa Calm   5.0 km/h 93% 0.0 mm 0 W/m2
21:18 10.6 °C 9.5 °C 1006.7 hPa North 3.5 km/h 5.0 km/h 93% 0.0 mm 0 W/m2
21:23 10.6 °C 9.7 °C 1006.7 hPa Calm   6.1 km/h 94% 0.0 mm 0 W/m2
21:28 10.5 °C 9.6 °C 1006.7 hPa Calm   6.1 km/h 94% 0.0 mm 0 W/m2
21:33 10.5 °C 9.7 °C 1006.7 hPa North 1.1 km/h 2.6 km/h 95% 0.0 mm 0 W/m2
21:38 10.4 °C 9.6 °C 1006.7 hPa Calm   2.6 km/h 95% 0.0 mm 0 W/m2
21:43 10.3 °C 9.6 °C 1006.7 hPa North 1.1 km/h 2.6 km/h 95% 0.0 mm 0 W/m2
21:48 10.3 °C 9.6 °C 1006.7 hPa NNW 2.6 km/h 3.5 km/h 95% 0.0 mm 0 W/m2
21:53 10.2 °C 9.4 °C 1006.7 hPa NNW 1.1 km/h 3.5 km/h 95% 0.0 mm 0 W/m2
21:58 10.0 °C 9.2 °C 1006.7 hPa NNW 1.1 km/h 3.5 km/h 95% 0.0 mm 0 W/m2
22:03 10.0 °C 9.4 °C 1006.7 hPa NNW 3.5 km/h 6.1 km/h 96% 0.0 mm 0 W/m2
22:08 9.9 °C 9.4 °C 1006.7 hPa NNW 2.6 km/h 6.1 km/h 97% 0.0 mm 0 W/m2
22:13 9.9 °C 9.4 °C 1006.7 hPa NNW 3.5 km/h 7.2 km/h 97% 0.0 mm 0 W/m2
22:18 9.8 °C 9.5 °C 1006.7 hPa NNW 3.5 km/h 7.2 km/h 98% 0.0 mm 0 W/m2
22:23 9.7 °C 9.4 °C 1006.7 hPa NNW 2.6 km/h 7.2 km/h 98% 0.0 mm 0 W/m2
22:28 9.8 °C 9.5 °C 1006.3 hPa NNW 6.1 km/h 7.2 km/h 98% 0.0 mm 0 W/m2
22:33 10.1 °C 9.8 °C 1006.3 hPa North 5.0 km/h 9.7 km/h 98% 0.0 mm 0 W/m2
22:38 10.2 °C 9.9 °C 1006.3 hPa North 5.0 km/h 9.7 km/h 98% 0.0 mm 0 W/m2
22:43 10.3 °C 10.2 °C 1006.3 hPa North 8.7 km/h 13.4 km/h 99% 0.0 mm 0 W/m2
22:48 10.5 °C 10.3 °C 1006.3 hPa North 6.1 km/h 14.8 km/h 99% 0.0 mm 0 W/m2
22:53 10.6 °C 10.4 °C 1006.3 hPa North 7.2 km/h 18.3 km/h 99% 0.0 mm 0 W/m2
22:58 10.6 °C 10.4 °C 1006.3 hPa North 8.7 km/h 18.3 km/h 99% 0.0 mm 0 W/m2
23:03 10.6 °C 10.4 °C 1006.3 hPa North 8.7 km/h 14.8 km/h 99% 0.0 mm 0 W/m2
23:08 10.5 °C 10.3 °C 1006.0 hPa North 6.1 km/h 14.8 km/h 99% 0.0 mm 0 W/m2
23:13 10.5 °C 10.3 °C 1006.0 hPa North 5.0 km/h 12.2 km/h 99% 0.0 mm 0 W/m2
23:18 10.2 °C 10.1 °C 1006.0 hPa NNW 9.7 km/h 12.2 km/h 99% 0.0 mm 0 W/m2
23:23 10.0 °C 9.8 °C 1006.0 hPa NNW 6.1 km/h 12.2 km/h 99% 0.0 mm 0 W/m2
23:28 9.8 °C 9.7 °C 1006.0 hPa NNW 7.2 km/h 12.2 km/h 99% 0.0 mm 0 W/m2
23:33 9.7 °C 9.6 °C 1006.3 hPa NW 6.1 km/h 9.7 km/h 99% 0.0 mm 0 W/m2
23:38 9.6 °C 9.4 °C 1006.3 hPa NW 2.6 km/h 9.7 km/h 99% 0.0 mm 0 W/m2
23:43 9.5 °C 9.3 °C 1006.3 hPa NW 2.6 km/h 7.2 km/h 99% 0.0 mm 0 W/m2
23:48 9.4 °C 9.3 °C 1006.3 hPa NW 1.1 km/h 5.0 km/h 99% 0.0 mm 0 W/m2
23:53 9.4 °C 9.3 °C 1006.3 hPa NNW 2.6 km/h 3.5 km/h 99% 0.0 mm 0 W/m2
23:58 9.6 °C 9.4 °C 1006.3 hPa NNW 2.6 km/h 6.1 km/h 99% 0.0 mm 0 W/m2
Northern Hawkes Bay. New Zealand Historic Data
Compliments of Weather Underground - 2.25 mb